CheckWX is a tool to help pilots better visualize weather data.  It is not intended as a substitute for an official pre-flight weather briefing.

03:20:20 UTC

EGYM METAR
RAF Marham Airport
Marham, United Kingdom
Current

2 hours ago

EGYM 240150Z AUTO 13003KT 9999 OVC120/// 05/02 Q1031
Observed
Mar-24 @ 01:50 UTC
Wind
  • 130° at 3 KTS
Visibility
10,000+ meters
Flight Rules
VFR
Cloud Levels
  • Overcast at 12,000' AGL
Temperature
C / 41°F
Dewpoint
C / 36°F
Humidity
81%
Altimeter
30.44" Hg
Pressure
1030.91 hPa
Previous

3 hours ago

EGYM 240050Z AUTO 18002KT 9999 OVC120/// 05/02 Q1032
Observed
Mar-24 @ 00:50 UTC
Wind
  • 180° at 2 KTS
Visibility
10,000+ meters
Flight Rules
VFR
Cloud Levels
  • Overcast at 12,000' AGL
Temperature
C / 41°F
Dewpoint
C / 36°F
Humidity
81%
Altimeter
30.47" Hg
Pressure
1031.91 hPa
Previous

4 hours ago

EGYM 232350Z AUTO 16002KT 9999 OVC120/// 05/02 Q1033
Observed
Mar-23 @ 23:50 UTC
Wind
  • 160° at 2 KTS
Visibility
10,000+ meters
Flight Rules
VFR
Cloud Levels
  • Overcast at 12,000' AGL
Temperature
C / 41°F
Dewpoint
C / 36°F
Humidity
81%
Altimeter
30.5" Hg
Pressure
1032.91 hPa